Weather at Beijing Capital International Airport

Public forecast

Using degrees Celsius for public forecast. Weather courtesy of forecast.io.

Current aviation weather report (METAR) for Beijing Capital International Airport

Retrieved 2021/12/05 10:00 UTC (8 minutes ago):

ZBAA 051000Z VRB01MPS 8000 NSC 01/M03 Q1021 NOSIG

Aviation forecast (TAF) for Beijing Capital International Airport

Retrieved 2021/12/05 06:03 UTC (4 hours ago):

TAF TAF ZBAA 050302Z 0506/0606 18004MPS CAVOK TX11/0507Z TNM02/0521Z BECMG 0514/0515 34007G14MPS